sensor_id;sensor_type;location;lat;lon;timestamp;P1;durP1;ratioP1;P2;durP2;ratioP2
19623;SDS011;9959;49.798;9.928;2023-05-10T00:02:03;4.30;;;3.72;;
19623;SDS011;9959;49.798;9.928;2023-05-10T00:04:30;7.35;;;3.63;;
19623;SDS011;9959;49.798;9.928;2023-05-10T00:06:57;6.20;;;3.97;;
19623;SDS011;9959;49.798;9.928;2023-05-10T00:09:24;5.28;;;4.00;;
19623;SDS011;9959;49.798;9.928;2023-05-10T00:11:51;5.85;;;3.60;;
19623;SDS011;9959;49.798;9.928;2023-05-10T00:14:17;6.85;;;3.50;;
19623;SDS011;9959;49.798;9.928;2023-05-10T00:16:45;6.70;;;3.70;;
19623;SDS011;9959;49.798;9.928;2023-05-10T00:19:12;5.28;;;4.20;;
19623;SDS011;9959;49.798;9.928;2023-05-10T00:21:39;5.22;;;3.55;;
19623;SDS011;9959;49.798;9.928;2023-05-10T00:24:05;4.72;;;3.55;;
19623;SDS011;9959;49.798;9.928;2023-05-10T00:26:32;4.55;;;3.40;;
19623;SDS011;9959;49.798;9.928;2023-05-10T00:28:59;5.82;;;3.50;;
19623;SDS011;9959;49.798;9.928;2023-05-10T00:31:26;4.32;;;3.42;;
19623;SDS011;9959;49.798;9.928;2023-05-10T00:33:53;5.78;;;3.60;;
19623;SDS011;9959;49.798;9.928;2023-05-10T00:36:19;6.75;;;3.45;;
19623;SDS011;9959;49.798;9.928;2023-05-10T00:38:47;8.77;;;3.85;;
19623;SDS011;9959;49.798;9.928;2023-05-10T00:41:14;3.88;;;3.10;;
19623;SDS011;9959;49.798;9.928;2023-05-10T00:43:41;4.10;;;3.58;;
19623;SDS011;9959;49.798;9.928;2023-05-10T00:46:08;5.20;;;3.80;;
19623;SDS011;9959;49.798;9.928;2023-05-10T00:48:35;3.90;;;3.50;;
19623;SDS011;9959;49.798;9.928;2023-05-10T00:51:02;4.60;;;3.28;;
19623;SDS011;9959;49.798;9.928;2023-05-10T00:53:30;6.20;;;4.05;;
19623;SDS011;9959;49.798;9.928;2023-05-10T00:55:59;5.68;;;4.03;;
19623;SDS011;9959;49.798;9.928;2023-05-10T00:58:26;5.07;;;3.55;;
19623;SDS011;9959;49.798;9.928;2023-05-10T01:00:55;4.38;;;3.63;;
19623;SDS011;9959;49.798;9.928;2023-05-10T01:03:23;4.22;;;3.78;;
19623;SDS011;9959;49.798;9.928;2023-05-10T01:05:51;6.38;;;3.75;;
19623;SDS011;9959;49.798;9.928;2023-05-10T01:08:18;9.88;;;4.00;;
19623;SDS011;9959;49.798;9.928;2023-05-10T01:10:46;6.45;;;4.10;;
19623;SDS011;9959;49.798;9.928;2023-05-10T01:13:23;5.07;;;3.55;;
19623;SDS011;9959;49.798;9.928;2023-05-10T01:15:59;5.18;;;3.53;;
19623;SDS011;9959;49.798;9.928;2023-05-10T01:18:29;4.40;;;3.50;;
19623;SDS011;9959;49.798;9.928;2023-05-10T01:21:17;4.15;;;3.30;;
19623;SDS011;9959;49.798;9.928;2023-05-10T01:32:59;3.42;;;3.00;;
19623;SDS011;9959;49.798;9.928;2023-05-10T01:35:37;4.32;;;3.10;;
19623;SDS011;9959;49.798;9.928;2023-05-10T01:41:19;4.05;;;3.03;;
19623;SDS011;9959;49.798;9.928;2023-05-10T01:44:00;6.20;;;3.22;;
19623;SDS011;9959;49.798;9.928;2023-05-10T01:46:37;2.70;;;2.47;;
19623;SDS011;9959;49.798;9.928;2023-05-10T01:49:10;3.13;;;2.60;;
19623;SDS011;9959;49.798;9.928;2023-05-10T01:51:42;3.17;;;2.30;;
19623;SDS011;9959;49.798;9.928;2023-05-10T01:54:13;3.13;;;2.40;;
19623;SDS011;9959;49.798;9.928;2023-05-10T01:56:47;3.38;;;2.33;;
19623;SDS011;9959;49.798;9.928;2023-05-10T01:59:21;2.40;;;2.20;;
19623;SDS011;9959;49.798;9.928;2023-05-10T02:01:48;2.38;;;2.17;;
19623;SDS011;9959;49.798;9.928;2023-05-10T02:04:17;2.05;;;1.85;;
19623;SDS011;9959;49.798;9.928;2023-05-10T02:06:46;1.77;;;1.67;;
19623;SDS011;9959;49.798;9.928;2023-05-10T02:09:14;5.22;;;1.90;;
19623;SDS011;9959;49.798;9.928;2023-05-10T02:11:43;2.17;;;1.70;;
19623;SDS011;9959;49.798;9.928;2023-05-10T02:14:10;3.95;;;1.90;;
19623;SDS011;9959;49.798;9.928;2023-05-10T02:16:38;1.60;;;1.50;;
19623;SDS011;9959;49.798;9.928;2023-05-10T02:19:06;1.50;;;1.40;;
19623;SDS011;9959;49.798;9.928;2023-05-10T02:21:35;1.85;;;1.75;;
19623;SDS011;9959;49.798;9.928;2023-05-10T02:24:03;1.45;;;1.35;;
19623;SDS011;9959;49.798;9.928;2023-05-10T02:26:31;1.70;;;1.60;;
19623;SDS011;9959;49.798;9.928;2023-05-10T02:29:01;1.50;;;1.38;;
19623;SDS011;9959;49.798;9.928;2023-05-10T02:31:33;1.05;;;1.02;;
19623;SDS011;9959;49.798;9.928;2023-05-10T02:34:01;2.60;;;1.60;;
19623;SDS011;9959;49.798;9.928;2023-05-10T02:36:29;1.38;;;1.27;;
19623;SDS011;9959;49.798;9.928;2023-05-10T02:38:56;1.10;;;1.00;;
19623;SDS011;9959;49.798;9.928;2023-05-10T02:41:25;3.05;;;1.13;;
19623;SDS011;9959;49.798;9.928;2023-05-10T02:43:57;1.40;;;1.30;;
19623;SDS011;9959;49.798;9.928;2023-05-10T02:46:27;2.15;;;1.60;;
19623;SDS011;9959;49.798;9.928;2023-05-10T02:48:54;1.63;;;1.27;;
19623;SDS011;9959;49.798;9.928;2023-05-10T02:51:21;1.23;;;1.13;;
19623;SDS011;9959;49.798;9.928;2023-05-10T02:53:51;1.50;;;1.40;;
19623;SDS011;9959;49.798;9.928;2023-05-10T02:56:43;1.50;;;1.40;;
19623;SDS011;9959;49.798;9.928;2023-05-10T02:59:13;1.52;;;1.30;;
19623;SDS011;9959;49.798;9.928;2023-05-10T03:01:40;1.33;;;1.23;;
19623;SDS011;9959;49.798;9.928;2023-05-10T03:04:07;2.17;;;1.35;;
19623;SDS011;9959;49.798;9.928;2023-05-10T03:06:34;1.15;;;1.13;;
19623;SDS011;9959;49.798;9.928;2023-05-10T03:09:01;1.30;;;1.20;;
19623;SDS011;9959;49.798;9.928;2023-05-10T03:17:24;1.67;;;0.98;;
19623;SDS011;9959;49.798;9.928;2023-05-10T03:19:58;1.20;;;1.10;;
19623;SDS011;9959;49.798;9.928;2023-05-10T03:22:37;1.52;;;1.10;;
19623;SDS011;9959;49.798;9.928;2023-05-10T03:25:07;0.90;;;0.90;;
19623;SDS011;9959;49.798;9.928;2023-05-10T03:27:39;1.23;;;1.10;;
19623;SDS011;9959;49.798;9.928;2023-05-10T03:30:08;1.33;;;1.20;;
19623;SDS011;9959;49.798;9.928;2023-05-10T03:32:38;1.30;;;1.10;;
19623;SDS011;9959;49.798;9.928;2023-05-10T03:35:11;1.00;;;1.00;;
19623;SDS011;9959;49.798;9.928;2023-05-10T03:37:39;1.10;;;1.10;;
19623;SDS011;9959;49.798;9.928;2023-05-10T03:40:06;2.10;;;1.20;;
19623;SDS011;9959;49.798;9.928;2023-05-10T03:42:34;2.10;;;1.20;;
19623;SDS011;9959;49.798;9.928;2023-05-10T03:45:01;1.92;;;1.17;;
19623;SDS011;9959;49.798;9.928;2023-05-10T03:47:27;1.33;;;1.23;;
19623;SDS011;9959;49.798;9.928;2023-05-10T03:49:56;2.90;;;1.10;;
19623;SDS011;9959;49.798;9.928;2023-05-10T03:52:22;1.38;;;1.30;;
19623;SDS011;9959;49.798;9.928;2023-05-10T03:54:49;1.90;;;1.45;;
19623;SDS011;9959;49.798;9.928;2023-05-10T03:57:16;1.30;;;1.20;;
19623;SDS011;9959;49.798;9.928;2023-05-10T03:59:43;1.45;;;1.30;;
19623;SDS011;9959;49.798;9.928;2023-05-10T04:02:10;3.45;;;1.30;;
19623;SDS011;9959;49.798;9.928;2023-05-10T04:04:37;2.65;;;1.40;;
19623;SDS011;9959;49.798;9.928;2023-05-10T04:07:03;1.55;;;1.35;;
19623;SDS011;9959;49.798;9.928;2023-05-10T04:09:30;2.75;;;1.42;;
19623;SDS011;9959;49.798;9.928;2023-05-10T04:11:58;1.77;;;1.23;;
19623;SDS011;9959;49.798;9.928;2023-05-10T04:14:26;1.95;;;1.25;;
19623;SDS011;9959;49.798;9.928;2023-05-10T04:16:52;1.30;;;1.20;;
19623;SDS011;9959;49.798;9.928;2023-05-10T04:19:19;4.00;;;1.13;;
19623;SDS011;9959;49.798;9.928;2023-05-10T04:21:46;1.13;;;1.13;;
19623;SDS011;9959;49.798;9.928;2023-05-10T04:24:13;1.33;;;1.10;;
19623;SDS011;9959;49.798;9.928;2023-05-10T04:26:40;3.17;;;1.27;;
19623;SDS011;9959;49.798;9.928;2023-05-10T04:29:07;1.60;;;1.40;;
19623;SDS011;9959;49.798;9.928;2023-05-10T04:31:34;1.52;;;1.40;;
19623;SDS011;9959;49.798;9.928;2023-05-10T04:34:02;1.70;;;1.40;;
19623;SDS011;9959;49.798;9.928;2023-05-10T04:36:29;2.47;;;1.75;;
19623;SDS011;9959;49.798;9.928;2023-05-10T04:38:56;1.25;;;1.17;;
19623;SDS011;9959;49.798;9.928;2023-05-10T04:41:23;3.85;;;1.52;;
19623;SDS011;9959;49.798;9.928;2023-05-10T04:43:51;1.52;;;1.40;;
19623;SDS011;9959;49.798;9.928;2023-05-10T04:46:18;1.40;;;1.30;;
19623;SDS011;9959;49.798;9.928;2023-05-10T04:48:45;2.17;;;1.65;;
19623;SDS011;9959;49.798;9.928;2023-05-10T04:51:11;2.85;;;1.70;;
19623;SDS011;9959;49.798;9.928;2023-05-10T04:53:38;1.58;;;1.40;;
19623;SDS011;9959;49.798;9.928;2023-05-10T04:56:06;4.00;;;1.42;;
19623;SDS011;9959;49.798;9.928;2023-05-10T04:58:33;2.03;;;1.50;;
19623;SDS011;9959;49.798;9.928;2023-05-10T05:01:07;1.70;;;1.38;;
19623;SDS011;9959;49.798;9.928;2023-05-10T05:03:36;1.58;;;1.48;;
19623;SDS011;9959;49.798;9.928;2023-05-10T05:06:03;2.83;;;1.25;;
19623;SDS011;9959;49.798;9.928;2023-05-10T05:08:30;2.45;;;1.35;;
19623;SDS011;9959;49.798;9.928;2023-05-10T05:10:57;2.22;;;1.80;;
19623;SDS011;9959;49.798;9.928;2023-05-10T05:13:24;2.28;;;1.60;;
19623;SDS011;9959;49.798;9.928;2023-05-10T05:15:51;2.55;;;1.50;;
19623;SDS011;9959;49.798;9.928;2023-05-10T05:18:18;3.88;;;1.60;;
19623;SDS011;9959;49.798;9.928;2023-05-10T05:20:44;1.58;;;1.42;;
19623;SDS011;9959;49.798;9.928;2023-05-10T05:23:11;1.52;;;1.42;;
19623;SDS011;9959;49.798;9.928;2023-05-10T05:25:38;1.65;;;1.50;;
19623;SDS011;9959;49.798;9.928;2023-05-10T05:28:05;2.00;;;1.30;;
19623;SDS011;9959;49.798;9.928;2023-05-10T05:30:31;4.97;;;1.60;;
19623;SDS011;9959;49.798;9.928;2023-05-10T05:32:58;2.88;;;1.65;;
19623;SDS011;9959;49.798;9.928;2023-05-10T05:35:25;3.72;;;1.60;;
19623;SDS011;9959;49.798;9.928;2023-05-10T05:37:52;2.30;;;1.80;;
19623;SDS011;9959;49.798;9.928;2023-05-10T05:40:19;3.05;;;1.83;;
19623;SDS011;9959;49.798;9.928;2023-05-10T05:42:46;3.45;;;1.60;;
19623;SDS011;9959;49.798;9.928;2023-05-10T05:45:13;5.47;;;1.50;;
19623;SDS011;9959;49.798;9.928;2023-05-10T05:47:41;3.10;;;1.58;;
19623;SDS011;9959;49.798;9.928;2023-05-10T05:50:08;1.80;;;1.48;;
19623;SDS011;9959;49.798;9.928;2023-05-10T05:52:35;5.35;;;1.58;;
19623;SDS011;9959;49.798;9.928;2023-05-10T05:55:02;5.88;;;1.95;;
19623;SDS011;9959;49.798;9.928;2023-05-10T05:57:30;5.53;;;1.88;;
19623;SDS011;9959;49.798;9.928;2023-05-10T05:59:56;4.45;;;1.63;;
19623;SDS011;9959;49.798;9.928;2023-05-10T06:02:23;1.70;;;1.60;;
19623;SDS011;9959;49.798;9.928;2023-05-10T06:04:50;3.45;;;1.58;;
19623;SDS011;9959;49.798;9.928;2023-05-10T06:07:17;4.35;;;1.70;;
19623;SDS011;9959;49.798;9.928;2023-05-10T06:09:44;4.07;;;1.70;;
19623;SDS011;9959;49.798;9.928;2023-05-10T06:12:11;4.82;;;1.67;;
19623;SDS011;9959;49.798;9.928;2023-05-10T06:14:38;1.70;;;1.60;;
19623;SDS011;9959;49.798;9.928;2023-05-10T06:17:05;1.98;;;1.65;;
19623;SDS011;9959;49.798;9.928;2023-05-10T06:19:34;5.57;;;1.67;;
19623;SDS011;9959;49.798;9.928;2023-05-10T06:22:02;4.88;;;1.77;;
19623;SDS011;9959;49.798;9.928;2023-05-10T06:24:29;2.95;;;2.10;;
19623;SDS011;9959;49.798;9.928;2023-05-10T06:26:55;2.85;;;1.58;;
19623;SDS011;9959;49.798;9.928;2023-05-10T06:29:22;3.53;;;1.40;;
19623;SDS011;9959;49.798;9.928;2023-05-10T06:31:49;2.83;;;1.80;;
19623;SDS011;9959;49.798;9.928;2023-05-10T06:34:16;2.47;;;1.70;;
19623;SDS011;9959;49.798;9.928;2023-05-10T06:36:43;3.00;;;1.67;;
19623;SDS011;9959;49.798;9.928;2023-05-10T06:39:10;2.67;;;1.83;;
19623;SDS011;9959;49.798;9.928;2023-05-10T06:41:38;1.70;;;1.52;;
19623;SDS011;9959;49.798;9.928;2023-05-10T06:44:05;2.85;;;1.70;;
19623;SDS011;9959;49.798;9.928;2023-05-10T06:46:31;4.60;;;2.03;;
19623;SDS011;9959;49.798;9.928;2023-05-10T06:48:58;2.38;;;1.73;;
19623;SDS011;9959;49.798;9.928;2023-05-10T06:51:25;2.08;;;1.85;;
19623;SDS011;9959;49.798;9.928;2023-05-10T06:53:52;5.03;;;1.83;;
19623;SDS011;9959;49.798;9.928;2023-05-10T06:56:19;2.65;;;1.60;;
19623;SDS011;9959;49.798;9.928;2023-05-10T06:58:48;2.38;;;1.77;;
19623;SDS011;9959;49.798;9.928;2023-05-10T07:01:14;3.67;;;1.60;;
19623;SDS011;9959;49.798;9.928;2023-05-10T07:03:41;2.03;;;1.80;;
19623;SDS011;9959;49.798;9.928;2023-05-10T07:06:08;3.67;;;1.90;;
19623;SDS011;9959;49.798;9.928;2023-05-10T07:08:54;4.85;;;2.00;;
19623;SDS011;9959;49.798;9.928;2023-05-10T07:11:21;3.97;;;1.98;;
19623;SDS011;9959;49.798;9.928;2023-05-10T07:13:48;5.53;;;1.85;;
19623;SDS011;9959;49.798;9.928;2023-05-10T07:16:15;5.05;;;2.13;;
19623;SDS011;9959;49.798;9.928;2023-05-10T07:18:42;4.47;;;2.25;;
19623;SDS011;9959;49.798;9.928;2023-05-10T07:21:08;2.45;;;1.80;;
19623;SDS011;9959;49.798;9.928;2023-05-10T07:23:35;2.17;;;1.95;;
19623;SDS011;9959;49.798;9.928;2023-05-10T07:26:02;4.18;;;2.03;;
19623;SDS011;9959;49.798;9.928;2023-05-10T07:28:29;6.65;;;2.20;;
19623;SDS011;9959;49.798;9.928;2023-05-10T07:30:56;3.05;;;2.13;;
19623;SDS011;9959;49.798;9.928;2023-05-10T07:33:23;12.70;;;3.08;;
19623;SDS011;9959;49.798;9.928;2023-05-10T07:35:50;2.25;;;1.83;;
19623;SDS011;9959;49.798;9.928;2023-05-10T07:38:16;2.58;;;1.65;;
19623;SDS011;9959;49.798;9.928;2023-05-10T07:40:43;9.07;;;1.90;;
19623;SDS011;9959;49.798;9.928;2023-05-10T07:43:10;3.15;;;1.80;;
19623;SDS011;9959;49.798;9.928;2023-05-10T07:45:37;4.18;;;2.08;;
19623;SDS011;9959;49.798;9.928;2023-05-10T07:48:04;5.40;;;2.30;;
19623;SDS011;9959;49.798;9.928;2023-05-10T07:50:31;5.25;;;1.98;;
19623;SDS011;9959;49.798;9.928;2023-05-10T07:52:58;3.78;;;1.92;;
19623;SDS011;9959;49.798;9.928;2023-05-10T07:55:24;7.47;;;2.45;;
19623;SDS011;9959;49.798;9.928;2023-05-10T07:57:51;2.45;;;2.03;;
19623;SDS011;9959;49.798;9.928;2023-05-10T08:00:19;6.25;;;3.22;;
19623;SDS011;9959;49.798;9.928;2023-05-10T08:02:46;4.07;;;2.00;;
19623;SDS011;9959;49.798;9.928;2023-05-10T08:05:14;3.13;;;1.88;;
19623;SDS011;9959;49.798;9.928;2023-05-10T08:07:41;2.58;;;2.17;;
19623;SDS011;9959;49.798;9.928;2023-05-10T08:10:09;8.00;;;2.10;;
19623;SDS011;9959;49.798;9.928;2023-05-10T08:12:37;6.40;;;2.22;;
19623;SDS011;9959;49.798;9.928;2023-05-10T08:15:04;6.63;;;2.30;;
19623;SDS011;9959;49.798;9.928;2023-05-10T08:17:33;5.30;;;2.00;;
19623;SDS011;9959;49.798;9.928;2023-05-10T08:20:00;10.63;;;2.30;;
19623;SDS011;9959;49.798;9.928;2023-05-10T08:22:26;4.38;;;2.50;;
19623;SDS011;9959;49.798;9.928;2023-05-10T08:24:53;3.25;;;2.42;;
19623;SDS011;9959;49.798;9.928;2023-05-10T08:27:20;4.57;;;2.20;;
19623;SDS011;9959;49.798;9.928;2023-05-10T08:29:47;5.93;;;2.05;;
19623;SDS011;9959;49.798;9.928;2023-05-10T08:32:15;4.60;;;2.08;;
19623;SDS011;9959;49.798;9.928;2023-05-10T08:34:42;2.58;;;1.85;;
19623;SDS011;9959;49.798;9.928;2023-05-10T08:37:09;9.90;;;2.72;;
19623;SDS011;9959;49.798;9.928;2023-05-10T08:39:39;3.92;;;1.80;;
19623;SDS011;9959;49.798;9.928;2023-05-10T08:42:06;3.20;;;2.00;;
19623;SDS011;9959;49.798;9.928;2023-05-10T08:44:35;5.97;;;2.00;;
19623;SDS011;9959;49.798;9.928;2023-05-10T08:47:06;6.75;;;2.55;;
19623;SDS011;9959;49.798;9.928;2023-05-10T08:49:34;6.07;;;2.40;;
19623;SDS011;9959;49.798;9.928;2023-05-10T08:52:02;4.63;;;2.22;;
19623;SDS011;9959;49.798;9.928;2023-05-10T08:54:33;5.68;;;2.33;;
19623;SDS011;9959;49.798;9.928;2023-05-10T08:57:00;4.20;;;1.77;;
19623;SDS011;9959;49.798;9.928;2023-05-10T08:59:27;3.97;;;1.85;;
19623;SDS011;9959;49.798;9.928;2023-05-10T09:01:58;8.52;;;3.38;;
19623;SDS011;9959;49.798;9.928;2023-05-10T09:04:26;8.10;;;2.30;;
19623;SDS011;9959;49.798;9.928;2023-05-10T09:06:53;5.20;;;2.15;;
19623;SDS011;9959;49.798;9.928;2023-05-10T09:09:20;3.40;;;2.10;;
19623;SDS011;9959;49.798;9.928;2023-05-10T09:11:48;5.22;;;2.17;;
19623;SDS011;9959;49.798;9.928;2023-05-10T09:14:15;3.92;;;2.17;;
19623;SDS011;9959;49.798;9.928;2023-05-10T09:16:43;6.45;;;2.10;;
19623;SDS011;9959;49.798;9.928;2023-05-10T09:19:11;3.13;;;2.10;;
19623;SDS011;9959;49.798;9.928;2023-05-10T09:21:38;3.90;;;2.40;;
19623;SDS011;9959;49.798;9.928;2023-05-10T09:24:05;5.47;;;2.20;;
19623;SDS011;9959;49.798;9.928;2023-05-10T09:26:34;3.72;;;2.85;;
19623;SDS011;9959;49.798;9.928;2023-05-10T09:29:02;3.00;;;2.05;;
19623;SDS011;9959;49.798;9.928;2023-05-10T09:34:19;3.00;;;2.03;;
19623;SDS011;9959;49.798;9.928;2023-05-10T09:36:59;3.63;;;2.70;;
19623;SDS011;9959;49.798;9.928;2023-05-10T09:39:31;3.30;;;2.08;;
19623;SDS011;9959;49.798;9.928;2023-05-10T09:42:08;3.08;;;2.17;;
19623;SDS011;9959;49.798;9.928;2023-05-10T09:44:35;2.42;;;2.00;;
19623;SDS011;9959;49.798;9.928;2023-05-10T09:47:03;4.40;;;2.40;;
19623;SDS011;9959;49.798;9.928;2023-05-10T09:49:30;6.45;;;2.47;;
19623;SDS011;9959;49.798;9.928;2023-05-10T09:52:01;3.78;;;2.17;;
19623;SDS011;9959;49.798;9.928;2023-05-10T09:54:32;5.82;;;2.15;;
19623;SDS011;9959;49.798;9.928;2023-05-10T09:56:59;4.88;;;2.10;;
19623;SDS011;9959;49.798;9.928;2023-05-10T09:59:28;3.22;;;1.98;;
19623;SDS011;9959;49.798;9.928;2023-05-10T10:01:56;2.67;;;1.77;;
19623;SDS011;9959;49.798;9.928;2023-05-10T10:04:24;2.70;;;1.60;;
19623;SDS011;9959;49.798;9.928;2023-05-10T10:07:01;4.53;;;1.73;;
19623;SDS011;9959;49.798;9.928;2023-05-10T10:09:30;3.42;;;1.80;;
19623;SDS011;9959;49.798;9.928;2023-05-10T10:11:57;4.45;;;1.90;;
19623;SDS011;9959;49.798;9.928;2023-05-10T10:14:25;1.95;;;1.40;;
19623;SDS011;9959;49.798;9.928;2023-05-10T10:16:52;13.18;;;2.05;;
19623;SDS011;9959;49.798;9.928;2023-05-10T10:19:33;3.22;;;1.90;;
19623;SDS011;9959;49.798;9.928;2023-05-10T10:22:02;3.20;;;1.60;;
19623;SDS011;9959;49.798;9.928;2023-05-10T10:24:29;2.00;;;1.83;;
19623;SDS011;9959;49.798;9.928;2023-05-10T10:26:57;3.33;;;1.83;;
19623;SDS011;9959;49.798;9.928;2023-05-10T10:29:39;1.90;;;1.70;;
19623;SDS011;9959;49.798;9.928;2023-05-10T10:32:22;3.22;;;1.75;;
19623;SDS011;9959;49.798;9.928;2023-05-10T10:35:11;6.63;;;2.00;;
19623;SDS011;9959;49.798;9.928;2023-05-10T10:37:44;2.28;;;1.83;;
19623;SDS011;9959;49.798;9.928;2023-05-10T10:40:22;3.35;;;1.92;;
19623;SDS011;9959;49.798;9.928;2023-05-10T10:42:54;1.80;;;1.70;;
19623;SDS011;9959;49.798;9.928;2023-05-10T10:45:22;2.92;;;1.60;;
19623;SDS011;9959;49.798;9.928;2023-05-10T10:47:56;2.67;;;1.50;;
19623;SDS011;9959;49.798;9.928;2023-05-10T10:50:55;2.78;;;1.60;;
19623;SDS011;9959;49.798;9.928;2023-05-10T10:53:25;5.78;;;1.70;;
19623;SDS011;9959;49.798;9.928;2023-05-10T10:56:02;2.85;;;1.55;;
19623;SDS011;9959;49.798;9.928;2023-05-10T10:58:34;2.75;;;1.42;;
19623;SDS011;9959;49.798;9.928;2023-05-10T11:01:23;4.45;;;1.40;;
19623;SDS011;9959;49.798;9.928;2023-05-10T11:04:16;2.88;;;1.83;;
19623;SDS011;9959;49.798;9.928;2023-05-10T11:06:41;4.47;;;1.60;;
19623;SDS011;9959;49.798;9.928;2023-05-10T11:09:09;2.03;;;1.55;;
19623;SDS011;9959;49.798;9.928;2023-05-10T11:11:53;5.50;;;1.38;;
19623;SDS011;9959;49.798;9.928;2023-05-10T11:14:24;2.97;;;1.70;;
19623;SDS011;9959;49.798;9.928;2023-05-10T11:16:51;1.92;;;1.45;;
19623;SDS011;9959;49.798;9.928;2023-05-10T11:19:19;5.00;;;1.60;;
19623;SDS011;9959;49.798;9.928;2023-05-10T11:21:47;1.40;;;1.30;;
19623;SDS011;9959;49.798;9.928;2023-05-10T11:24:37;1.58;;;1.40;;
19623;SDS011;9959;49.798;9.928;2023-05-10T11:27:05;4.13;;;1.67;;
19623;SDS011;9959;49.798;9.928;2023-05-10T11:29:32;2.38;;;1.50;;
19623;SDS011;9959;49.798;9.928;2023-05-10T11:31:58;3.47;;;1.65;;
19623;SDS011;9959;49.798;9.928;2023-05-10T11:34:27;1.58;;;1.40;;
19623;SDS011;9959;49.798;9.928;2023-05-10T11:37:04;1.60;;;1.50;;
19623;SDS011;9959;49.798;9.928;2023-05-10T11:39:31;2.60;;;1.65;;
19623;SDS011;9959;49.798;9.928;2023-05-10T11:41:59;3.10;;;1.55;;
19623;SDS011;9959;49.798;9.928;2023-05-10T11:44:32;3.00;;;1.42;;
19623;SDS011;9959;49.798;9.928;2023-05-10T11:47:00;2.35;;;1.77;;
19623;SDS011;9959;49.798;9.928;2023-05-10T11:49:27;3.15;;;1.70;;
19623;SDS011;9959;49.798;9.928;2023-05-10T11:52:03;3.25;;;1.83;;
19623;SDS011;9959;49.798;9.928;2023-05-10T11:54:33;2.40;;;1.50;;
19623;SDS011;9959;49.798;9.928;2023-05-10T11:57:03;3.08;;;1.85;;
19623;SDS011;9959;49.798;9.928;2023-05-10T11:59:30;3.10;;;1.70;;
19623;SDS011;9959;49.798;9.928;2023-05-10T12:01:57;2.85;;;1.40;;
19623;SDS011;9959;49.798;9.928;2023-05-10T12:04:24;1.50;;;1.40;;
19623;SDS011;9959;49.798;9.928;2023-05-10T12:06:53;1.60;;;1.38;;
19623;SDS011;9959;49.798;9.928;2023-05-10T12:09:20;5.50;;;1.70;;
19623;SDS011;9959;49.798;9.928;2023-05-10T12:12:06;2.47;;;1.48;;
19623;SDS011;9959;49.798;9.928;2023-05-10T12:14:34;1.50;;;1.27;;
19623;SDS011;9959;49.798;9.928;2023-05-10T12:17:02;1.73;;;1.50;;
19623;SDS011;9959;49.798;9.928;2023-05-10T12:19:34;2.13;;;1.30;;
19623;SDS011;9959;49.798;9.928;2023-05-10T12:22:04;2.10;;;1.50;;
19623;SDS011;9959;49.798;9.928;2023-05-10T12:24:36;2.22;;;1.67;;
19623;SDS011;9959;49.798;9.928;2023-05-10T12:27:04;3.42;;;1.92;;
19623;SDS011;9959;49.798;9.928;2023-05-10T12:29:34;2.45;;;1.60;;
19623;SDS011;9959;49.798;9.928;2023-05-10T12:32:01;1.70;;;1.60;;
19623;SDS011;9959;49.798;9.928;2023-05-10T12:34:32;1.67;;;1.30;;
19623;SDS011;9959;49.798;9.928;2023-05-10T12:37:02;2.67;;;1.23;;
19623;SDS011;9959;49.798;9.928;2023-05-10T12:39:39;2.53;;;1.85;;
19623;SDS011;9959;49.798;9.928;2023-05-10T12:42:07;7.78;;;1.67;;
19623;SDS011;9959;49.798;9.928;2023-05-10T12:44:34;2.88;;;1.55;;
19623;SDS011;9959;49.798;9.928;2023-05-10T12:47:01;7.47;;;1.40;;
19623;SDS011;9959;49.798;9.928;2023-05-10T12:49:28;3.78;;;1.25;;
19623;SDS011;9959;49.798;9.928;2023-05-10T12:51:55;3.65;;;1.50;;
19623;SDS011;9959;49.798;9.928;2023-05-10T12:54:22;3.25;;;1.50;;
19623;SDS011;9959;49.798;9.928;2023-05-10T12:56:49;2.65;;;1.77;;
19623;SDS011;9959;49.798;9.928;2023-05-10T12:59:16;3.28;;;2.15;;
19623;SDS011;9959;49.798;9.928;2023-05-10T13:01:43;4.15;;;2.50;;
19623;SDS011;9959;49.798;9.928;2023-05-10T13:04:09;5.47;;;2.53;;
19623;SDS011;9959;49.798;9.928;2023-05-10T13:06:36;5.60;;;2.47;;
19623;SDS011;9959;49.798;9.928;2023-05-10T13:09:03;6.15;;;3.40;;
19623;SDS011;9959;49.798;9.928;2023-05-10T13:11:30;9.80;;;3.50;;
19623;SDS011;9959;49.798;9.928;2023-05-10T13:13:57;4.57;;;3.30;;
19623;SDS011;9959;49.798;9.928;2023-05-10T13:16:24;10.65;;;3.38;;
19623;SDS011;9959;49.798;9.928;2023-05-10T13:18:51;6.25;;;3.30;;
19623;SDS011;9959;49.798;9.928;2023-05-10T13:21:18;6.75;;;3.35;;
19623;SDS011;9959;49.798;9.928;2023-05-10T13:23:45;6.63;;;3.58;;
19623;SDS011;9959;49.798;9.928;2023-05-10T13:26:13;5.88;;;3.55;;
19623;SDS011;9959;49.798;9.928;2023-05-10T13:28:40;5.35;;;3.17;;
19623;SDS011;9959;49.798;9.928;2023-05-10T13:31:07;7.55;;;3.90;;
19623;SDS011;9959;49.798;9.928;2023-05-10T13:33:34;6.28;;;3.85;;
19623;SDS011;9959;49.798;9.928;2023-05-10T13:36:01;11.88;;;4.00;;
19623;SDS011;9959;49.798;9.928;2023-05-10T13:38:28;5.85;;;3.17;;
19623;SDS011;9959;49.798;9.928;2023-05-10T13:40:55;7.90;;;3.70;;
19623;SDS011;9959;49.798;9.928;2023-05-10T13:43:22;5.47;;;3.92;;
19623;SDS011;9959;49.798;9.928;2023-05-10T13:45:50;5.95;;;3.80;;
19623;SDS011;9959;49.798;9.928;2023-05-10T13:48:17;5.22;;;3.10;;
19623;SDS011;9959;49.798;9.928;2023-05-10T13:50:43;4.63;;;3.80;;
19623;SDS011;9959;49.798;9.928;2023-05-10T13:53:10;7.70;;;4.10;;
19623;SDS011;9959;49.798;9.928;2023-05-10T13:55:37;7.57;;;3.63;;
19623;SDS011;9959;49.798;9.928;2023-05-10T13:58:04;4.82;;;3.25;;
19623;SDS011;9959;49.798;9.928;2023-05-10T14:00:31;8.63;;;3.80;;
19623;SDS011;9959;49.798;9.928;2023-05-10T14:02:58;7.97;;;4.40;;
19623;SDS011;9959;49.798;9.928;2023-05-10T14:05:25;4.65;;;3.67;;
19623;SDS011;9959;49.798;9.928;2023-05-10T14:07:53;8.25;;;3.40;;
19623;SDS011;9959;49.798;9.928;2023-05-10T14:10:20;8.35;;;3.78;;
19623;SDS011;9959;49.798;9.928;2023-05-10T14:12:47;8.65;;;3.70;;
19623;SDS011;9959;49.798;9.928;2023-05-10T14:15:14;6.13;;;3.45;;
19623;SDS011;9959;49.798;9.928;2023-05-10T14:17:41;4.22;;;3.80;;
19623;SDS011;9959;49.798;9.928;2023-05-10T14:20:08;4.15;;;3.75;;
19623;SDS011;9959;49.798;9.928;2023-05-10T14:22:35;5.72;;;3.50;;
19623;SDS011;9959;49.798;9.928;2023-05-10T14:25:02;5.75;;;3.33;;
19623;SDS011;9959;49.798;9.928;2023-05-10T14:27:29;7.25;;;3.45;;
19623;SDS011;9959;49.798;9.928;2023-05-10T14:29:56;8.32;;;3.60;;
19623;SDS011;9959;49.798;9.928;2023-05-10T14:32:23;7.55;;;3.97;;
19623;SDS011;9959;49.798;9.928;2023-05-10T14:34:50;5.38;;;3.20;;
19623;SDS011;9959;49.798;9.928;2023-05-10T14:37:17;9.77;;;3.58;;
19623;SDS011;9959;49.798;9.928;2023-05-10T14:39:43;3.88;;;2.97;;
19623;SDS011;9959;49.798;9.928;2023-05-10T14:42:11;5.10;;;3.40;;
19623;SDS011;9959;49.798;9.928;2023-05-10T14:44:38;11.88;;;3.92;;
19623;SDS011;9959;49.798;9.928;2023-05-10T14:47:05;5.55;;;3.83;;
19623;SDS011;9959;49.798;9.928;2023-05-10T14:49:32;8.07;;;5.45;;
19623;SDS011;9959;49.798;9.928;2023-05-10T14:51:58;5.80;;;4.43;;
19623;SDS011;9959;49.798;9.928;2023-05-10T14:54:25;8.30;;;4.90;;
19623;SDS011;9959;49.798;9.928;2023-05-10T14:56:52;8.30;;;6.28;;
19623;SDS011;9959;49.798;9.928;2023-05-10T14:59:20;11.07;;;5.50;;
19623;SDS011;9959;49.798;9.928;2023-05-10T15:01:47;10.13;;;5.50;;
19623;SDS011;9959;49.798;9.928;2023-05-10T15:04:14;9.98;;;4.95;;
19623;SDS011;9959;49.798;9.928;2023-05-10T15:06:43;13.23;;;5.38;;
19623;SDS011;9959;49.798;9.928;2023-05-10T15:09:10;8.88;;;5.20;;
19623;SDS011;9959;49.798;9.928;2023-05-10T15:11:37;8.45;;;5.88;;
19623;SDS011;9959;49.798;9.928;2023-05-10T15:14:03;9.38;;;5.18;;
19623;SDS011;9959;49.798;9.928;2023-05-10T15:16:30;9.55;;;4.95;;
19623;SDS011;9959;49.798;9.928;2023-05-10T15:19:01;7.85;;;5.00;;
19623;SDS011;9959;49.798;9.928;2023-05-10T15:21:29;9.32;;;4.85;;
19623;SDS011;9959;49.798;9.928;2023-05-10T15:24:01;5.47;;;4.30;;
19623;SDS011;9959;49.798;9.928;2023-05-10T15:26:28;5.25;;;4.18;;
19623;SDS011;9959;49.798;9.928;2023-05-10T15:28:54;7.43;;;4.70;;
19623;SDS011;9959;49.798;9.928;2023-05-10T15:31:21;5.60;;;4.63;;